createdAt,value
2019-04-30T00:10:15.535Z,9.31
2019-04-30T00:15:20.220Z,9.03
2019-04-30T00:20:25.619Z,8.90
2019-04-30T00:25:31.144Z,9.13
2019-04-30T00:30:39.298Z,8.96
2019-04-30T00:35:49.691Z,9.17
2019-04-30T00:40:53.642Z,8.85
2019-04-30T00:45:58.078Z,8.99
2019-04-30T00:51:02.539Z,8.93
2019-04-30T00:56:06.985Z,8.62
2019-04-30T01:01:25.611Z,8.67
2019-04-30T01:06:31.451Z,8.52
2019-04-30T01:11:39.733Z,8.45
2019-04-30T01:16:41.877Z,8.68
2019-04-30T01:21:47.035Z,8.55
2019-04-30T01:26:52.294Z,8.08
2019-04-30T01:31:58.540Z,8.57
2019-04-30T01:37:02.971Z,8.38
2019-04-30T01:42:11.274Z,8.04
2019-04-30T01:47:13.371Z,8.16
2019-04-30T01:52:19.383Z,8.05
2019-04-30T01:57:29.291Z,8.12
2019-04-30T02:02:35.356Z,8.02
2019-04-30T02:07:40.402Z,7.81
2019-04-30T02:12:45.968Z,7.44
2019-04-30T02:17:50.551Z,7.44
2019-04-30T02:22:54.971Z,7.37
2019-04-30T02:27:59.544Z,7.60
2019-04-30T02:33:04.093Z,7.64
2019-04-30T02:38:10.182Z,7.56
2019-04-30T02:43:15.219Z,7.75
2019-04-30T02:48:21.873Z,7.62
2019-04-30T02:53:52.125Z,7.36
2019-04-30T02:58:56.566Z,7.70
2019-04-30T03:04:00.927Z,7.11
2019-04-30T03:09:06.483Z,7.47
2019-04-30T03:14:11.140Z,7.26
2019-04-30T03:19:19.505Z,7.14
2019-04-30T03:24:23.341Z,7.17
2019-04-30T03:29:30.060Z,7.15
2019-04-30T03:34:33.749Z,7.21
2019-04-30T03:39:40.031Z,6.82
2019-04-30T03:44:44.580Z,7.32
2019-04-30T03:49:49.937Z,6.89
2019-04-30T03:54:54.495Z,6.97
2019-04-30T03:59:59.467Z,7.08
2019-04-30T04:05:10.318Z,7.20
2019-04-30T04:10:19.515Z,6.77
2019-04-30T04:15:24.030Z,6.82
2019-04-30T04:20:29.907Z,6.78
2019-04-30T04:25:35.323Z,7.09
2019-04-30T04:30:42.901Z,7.51
2019-04-30T04:35:45.748Z,7.23
2019-04-30T04:40:50.472Z,8.11
2019-04-30T04:45:55.008Z,7.78
2019-04-30T04:51:00.279Z,8.12
2019-04-30T04:56:04.938Z,7.91
2019-04-30T05:01:11.812Z,8.09
2019-04-30T05:06:16.354Z,8.51
2019-04-30T05:11:20.765Z,8.39
2019-04-30T05:16:25.194Z,8.77
2019-04-30T05:21:41.431Z,8.51
2019-04-30T05:26:35.592Z,8.76
2019-04-30T05:31:39.988Z,8.78
2019-04-30T05:36:44.366Z,9.13
2019-04-30T05:41:49.168Z,8.90
2019-04-30T05:46:53.751Z,9.35
2019-04-30T05:51:59.379Z,9.32
2019-04-30T05:57:03.819Z,9.43
2019-04-30T06:02:08.825Z,9.89
2019-04-30T06:07:14.304Z,9.57
2019-04-30T06:12:20.448Z,9.48
2019-04-30T06:17:32.324Z,9.38
2019-04-30T06:22:38.535Z,9.32
2019-04-30T06:27:43.147Z,9.42
2019-04-30T06:32:49.483Z,9.29
2019-04-30T06:37:53.675Z,10.02
2019-04-30T06:43:00.537Z,10.19
2019-04-30T06:48:05.726Z,9.99
2019-04-30T06:53:10.112Z,9.80
2019-04-30T06:58:15.505Z,9.86
2019-04-30T07:03:20.035Z,9.69
2019-04-30T07:08:39.619Z,10.82
2019-04-30T07:13:39.517Z,10.27
2019-04-30T07:18:44.049Z,10.28
2019-04-30T07:23:48.610Z,10.69
2019-04-30T07:28:55.217Z,10.91
2019-04-30T07:33:59.588Z,10.47
2019-04-30T07:39:06.227Z,10.38
2019-04-30T07:44:12.959Z,9.88
2019-04-30T07:49:20.075Z,10.31
2019-04-30T07:54:23.854Z,10.39
2019-04-30T07:59:30.170Z,10.30
2019-04-30T08:04:35.975Z,10.76
2019-04-30T08:09:42.291Z,10.83
2019-04-30T08:14:49.446Z,10.71
2019-04-30T08:19:53.540Z,10.71
2019-04-30T08:24:58.673Z,10.74
2019-04-30T08:30:03.270Z,11.14
2019-04-30T08:35:09.886Z,10.73
2019-04-30T08:40:14.481Z,11.32
2019-04-30T08:45:19.741Z,10.54
2019-04-30T08:50:25.333Z,11.13
2019-04-30T08:55:30.399Z,11.40
2019-04-30T09:00:35.239Z,11.63
2019-04-30T09:05:41.245Z,11.47
2019-04-30T09:10:54.465Z,11.85
2019-04-30T09:15:59.424Z,11.56
2019-04-30T09:21:06.358Z,11.58
2019-04-30T09:26:11.043Z,11.44
2019-04-30T09:31:15.387Z,11.46
2019-04-30T09:36:20.871Z,11.79
2019-04-30T09:41:25.478Z,11.93
2019-04-30T09:46:30.138Z,12.48
2019-04-30T09:51:34.580Z,12.00
2019-04-30T09:56:39.378Z,12.17
2019-04-30T10:01:44.003Z,11.87
2019-04-30T10:06:50.111Z,12.96
2019-04-30T10:11:59.676Z,12.94
2019-04-30T10:17:05.826Z,12.65
2019-04-30T10:22:10.180Z,12.56
2019-04-30T10:27:14.738Z,13.31
2019-04-30T10:32:19.077Z,13.44
2019-04-30T10:37:23.443Z,13.10
2019-04-30T10:42:28.870Z,13.23
2019-04-30T10:47:33.463Z,13.43
2019-04-30T10:52:39.301Z,13.31
2019-04-30T10:57:43.872Z,13.40
2019-04-30T11:02:49.657Z,13.72
2019-04-30T11:07:54.139Z,13.60
2019-04-30T11:12:58.513Z,13.96
2019-04-30T11:18:03.206Z,13.30
2019-04-30T11:23:14.086Z,13.81
2019-04-30T11:28:14.240Z,13.92
2019-04-30T11:33:19.418Z,13.81
2019-04-30T11:38:24.065Z,14.15
2019-04-30T11:43:29.482Z,14.09
2019-04-30T11:48:33.970Z,13.88
2019-04-30T11:53:39.504Z,13.93
2019-04-30T11:58:43.890Z,14.02
2019-04-30T12:03:49.750Z,14.01
2019-04-30T12:09:01.994Z,14.56
2019-04-30T12:14:08.033Z,13.85
2019-04-30T12:19:12.375Z,14.19
2019-04-30T12:24:17.800Z,14.29
2019-04-30T12:29:22.159Z,14.07
2019-04-30T12:34:26.567Z,13.85
2019-04-30T12:39:30.946Z,14.10
2019-04-30T12:44:35.352Z,14.14
2019-04-30T12:50:00.890Z,14.61
2019-04-30T12:55:15.151Z,14.72
2019-04-30T13:00:14.300Z,14.89
2019-04-30T13:05:19.285Z,14.83
2019-04-30T13:10:24.272Z,14.73
2019-04-30T13:15:29.140Z,14.87
2019-04-30T13:20:33.629Z,15.11
2019-04-30T13:25:49.005Z,15.23
2019-04-30T13:30:44.195Z,15.40
2019-04-30T13:35:48.933Z,15.29
2019-04-30T13:41:11.642Z,15.37
2019-04-30T13:46:15.993Z,15.81
2019-04-30T13:51:20.346Z,15.89
2019-04-30T13:56:24.671Z,15.93
2019-04-30T14:01:29.502Z,15.90
2019-04-30T14:06:36.568Z,15.88
2019-04-30T14:11:40.958Z,15.74
2019-04-30T14:16:45.514Z,15.95
2019-04-30T14:21:50.037Z,15.86
2019-04-30T14:26:54.418Z,15.90
2019-04-30T14:31:58.896Z,15.85
2019-04-30T14:37:03.348Z,15.96
2019-04-30T14:42:10.981Z,15.99
2019-04-30T14:47:25.483Z,16.10
2019-04-30T14:52:32.248Z,15.77
2019-04-30T14:57:54.517Z,15.92
2019-04-30T15:03:00.974Z,15.97
2019-04-30T15:08:05.782Z,16.20
2019-04-30T15:13:10.140Z,15.97
2019-04-30T15:18:14.487Z,15.94
2019-04-30T15:23:29.643Z,16.01
2019-04-30T15:28:34.013Z,15.97
2019-04-30T15:33:40.005Z,16.06
2019-04-30T15:38:58.080Z,16.29
2019-04-30T15:44:02.507Z,16.94
2019-04-30T15:49:06.952Z,16.35
2019-04-30T15:54:11.474Z,16.06
2019-04-30T15:59:33.888Z,16.06
2019-04-30T16:04:43.025Z,16.16
2019-04-30T16:09:49.068Z,15.94
2019-04-30T16:14:53.364Z,15.89
2019-04-30T16:19:57.703Z,16.07
2019-04-30T16:25:02.153Z,15.94
2019-04-30T16:30:06.843Z,15.99
2019-04-30T16:35:11.531Z,16.02
2019-04-30T16:40:16.269Z,15.98
2019-04-30T16:45:20.943Z,15.86
2019-04-30T16:50:25.624Z,15.77
2019-04-30T16:55:30.108Z,15.84
2019-04-30T17:00:39.225Z,15.78
2019-04-30T17:05:49.891Z,15.66
2019-04-30T17:11:01.976Z,15.66
2019-04-30T17:16:11.320Z,15.53
2019-04-30T17:21:16.065Z,15.43
2019-04-30T17:26:20.599Z,15.30
2019-04-30T17:31:25.004Z,15.17
2019-04-30T17:36:29.815Z,15.07
2019-04-30T17:41:34.191Z,14.94
2019-04-30T17:46:38.610Z,14.81
2019-04-30T17:51:43.006Z,14.76
2019-04-30T17:56:48.223Z,14.67
2019-04-30T18:01:56.899Z,14.53
2019-04-30T18:07:01.338Z,14.45
2019-04-30T18:12:05.763Z,14.41
2019-04-30T18:17:10.192Z,14.27
2019-04-30T18:22:16.229Z,14.12
2019-04-30T18:27:23.722Z,13.93
2019-04-30T18:32:29.647Z,13.82
2019-04-30T18:37:34.165Z,13.77
2019-04-30T18:42:39.580Z,13.61
2019-04-30T18:47:44.210Z,13.47
2019-04-30T18:52:50.697Z,13.36
2019-04-30T18:57:56.721Z,13.27
2019-04-30T19:03:01.286Z,13.12
2019-04-30T19:08:09.679Z,12.94
2019-04-30T19:13:32.381Z,12.98
2019-04-30T19:18:41.300Z,12.86
2019-04-30T19:23:45.650Z,12.66
2019-04-30T19:28:50.088Z,12.60
2019-04-30T19:33:55.422Z,12.58
2019-04-30T19:38:59.884Z,12.44
2019-04-30T19:44:04.623Z,12.51
2019-04-30T19:49:09.815Z,12.22
2019-04-30T19:54:16.027Z,12.30
2019-04-30T19:59:20.590Z,12.16
2019-04-30T20:04:33.173Z,12.04
2019-04-30T20:09:31.647Z,12.04
2019-04-30T20:14:36.069Z,11.98
2019-04-30T20:19:40.419Z,11.88
2019-04-30T20:24:44.838Z,11.87
2019-04-30T20:29:51.714Z,11.87
2019-04-30T20:34:55.429Z,11.73
2019-04-30T20:40:01.470Z,11.66
2019-04-30T20:45:08.963Z,11.71
2019-04-30T20:50:13.039Z,11.67
2019-04-30T20:55:17.402Z,11.69
2019-04-30T21:00:21.769Z,11.63
2019-04-30T21:05:27.015Z,11.36
2019-04-30T21:10:31.501Z,11.23
2019-04-30T21:15:35.871Z,11.35
2019-04-30T21:20:40.290Z,11.27
2019-04-30T21:25:44.732Z,11.24
2019-04-30T21:30:49.123Z,10.98
2019-04-30T21:35:58.631Z,11.04
2019-04-30T21:41:03.215Z,10.99
2019-04-30T21:46:09.504Z,10.79
2019-04-30T21:51:14.048Z,10.85
2019-04-30T21:56:19.534Z,10.76
2019-04-30T22:01:25.675Z,10.61
2019-04-30T22:06:31.932Z,10.49
2019-04-30T22:11:37.105Z,10.42
2019-04-30T22:16:41.515Z,10.64
2019-04-30T22:21:46.687Z,10.56
2019-04-30T22:26:51.073Z,10.41
2019-04-30T22:31:55.480Z,10.23
2019-04-30T22:36:59.847Z,10.19
2019-04-30T22:42:30.090Z,10.08
2019-04-30T22:47:34.505Z,10.01
2019-04-30T22:52:38.978Z,10.00
2019-04-30T22:57:43.760Z,9.91
2019-04-30T23:03:05.093Z,9.84
2019-04-30T23:08:09.649Z,9.66
2019-04-30T23:13:14.191Z,9.65
2019-04-30T23:18:18.572Z,9.51
2019-04-30T23:23:22.967Z,9.33
2019-04-30T23:28:27.322Z,9.22
2019-04-30T23:33:31.820Z,9.18
2019-04-30T23:38:36.218Z,8.99
2019-04-30T23:43:40.658Z,9.06
2019-04-30T23:48:45.081Z,9.20
2019-04-30T23:53:49.442Z,9.01
2019-04-30T23:58:53.901Z,9.06
